Time;durP1;ratioP1;P1;durP2;ratioP2;P2;SDS_P1;SDS_P2;PMS_P1;PMS_P2;Temp;Humidity;BMP_temperature;BMP_pressure;BME280_temperature;BME280_humidity;BME280_pressure;Samples;Min_cycle;Max_cycle;Signal;HPM_P1;HPM_P2
2023/06/08 00:00:11;;;;;;;3.10;0.60;;;;;;;16.38;100.00;100248.14;105375;1258;72790;-48
2023/06/08 00:02:39;;;;;;;0.70;0.60;;;;;;;16.33;100.00;100243.94;105315;1260;61710;-48
2023/06/08 00:05:08;;;;;;;0.70;0.60;;;;;;;16.28;100.00;100242.25;105841;1261;60125;-46
2023/06/08 00:07:36;;;;;;;1.20;0.60;;;;;;;16.22;100.00;100237.92;105374;1259;73596;-47
2023/06/08 00:10:04;;;;;;;1.20;0.60;;;;;;;16.16;100.00;100234.38;105289;1259;67595;-47
2023/06/08 00:12:33;;;;;;;0.70;0.60;;;;;;;16.13;100.00;100235.66;105220;1257;73110;-46
2023/06/08 00:15:00;;;;;;;2.20;0.60;;;;;;;16.09;100.00;100234.42;106558;1254;61665;-45
2023/06/08 00:17:28;;;;;;;5.70;0.70;;;;;;;16.05;100.00;100230.72;105275;1265;60415;-49
2023/06/08 00:19:56;;;;;;;1.40;0.60;;;;;;;16.02;100.00;100230.34;108431;1257;73834;-44
2023/06/08 00:22:24;;;;;;;1.40;0.70;;;;;;;16.02;100.00;100229.45;105368;1259;67846;-47
2023/06/08 00:24:52;;;;;;;1.10;0.70;;;;;;;15.99;100.00;100233.26;105650;1258;72429;-47
2023/06/08 00:27:19;;;;;;;0.80;0.70;;;;;;;15.97;100.00;100232.16;105299;1260;60427;-47
2023/06/08 00:29:46;;;;;;;0.80;0.70;;;;;;;15.95;100.00;100230.63;105338;1256;60888;-48
2023/06/08 00:32:14;;;;;;;3.20;0.80;;;;;;;15.94;100.00;100231.59;105255;1259;73918;-49
2023/06/08 00:34:41;;;;;;;1.30;0.70;;;;;;;15.90;100.00;100229.70;108752;1254;67850;-49
2023/06/08 00:37:09;;;;;;;2.30;0.70;;;;;;;15.85;100.00;100230.36;108902;1257;71284;-48
2023/06/08 00:39:36;;;;;;;2.60;0.70;;;;;;;15.82;100.00;100232.30;105306;1257;60553;-47
2023/06/08 00:42:05;;;;;;;1.40;0.90;;;;;;;15.83;100.00;100229.38;105081;1262;60445;-47
2023/06/08 00:44:34;;;;;;;1.30;0.80;;;;;;;15.81;100.00;100229.35;108985;1255;73813;-46
2023/06/08 00:47:01;;;;;;;2.10;0.80;;;;;;;15.80;100.00;100227.05;108945;1254;67889;-47
2023/06/08 00:49:28;;;;;;;2.30;0.60;;;;;;;15.80;100.00;100222.70;108822;1255;72645;-47
2023/06/08 00:51:56;;;;;;;0.90;0.70;;;;;;;15.79;100.00;100221.46;108788;1261;61735;-47
2023/06/08 00:54:24;;;;;;;2.80;0.80;;;;;;;15.78;100.00;100220.64;106108;1257;60520;-44
2023/06/08 00:56:52;;;;;;;2.20;0.70;;;;;;;15.77;100.00;100215.13;106956;1258;72811;-47
2023/06/08 00:59:19;;;;;;;0.80;0.60;;;;;;;15.76;100.00;100215.53;105050;1262;68801;-47
2023/06/08 01:01:47;;;;;;;0.90;0.60;;;;;;;15.78;100.00;100222.25;105247;1262;73163;-47
2023/06/08 01:04:16;;;;;;;1.30;0.60;;;;;;;15.83;100.00;100220.15;108964;1257;61699;-47
2023/06/08 01:06:48;;;;;;;2.40;0.90;;;;;;;15.87;100.00;100220.10;106382;1257;60538;-47
2023/06/08 01:09:25;;;;;;;0.80;0.70;;;;;;;15.92;100.00;100219.42;105280;1260;73860;-46
2023/06/08 01:12:05;;;;;;;1.10;0.60;;;;;;;15.99;100.00;100220.27;105295;1259;67736;-47
2023/06/08 01:14:45;;;;;;;1.00;0.80;;;;;;;16.03;100.00;100223.06;105353;1260;72734;-48
2023/06/08 01:17:15;;;;;;;1.30;0.60;;;;;;;16.07;100.00;100225.02;109022;1255;60643;-47
2023/06/08 01:20:15;;;;;;;2.70;0.60;;;;;;;16.09;100.00;100225.39;107771;1262;60557;-46
2023/06/08 01:23:00;;;;;;;0.80;0.60;;;;;;;16.10;100.00;100226.60;105279;1259;73828;-48
2023/06/08 01:25:30;;;;;;;0.60;0.60;;;;;;;16.11;100.00;100231.05;106086;1260;67545;-47
2023/06/08 01:28:12;;;;;;;0.70;0.60;;;;;;;16.12;100.00;100236.23;105306;1260;72683;-48
2023/06/08 01:30:40;;;;;;;0.90;0.70;;;;;;;16.13;100.00;100240.18;106283;1259;61612;-47
2023/06/08 01:33:12;;;;;;;0.60;0.60;;;;;;;16.12;100.00;100244.59;105544;1256;60372;-49
2023/06/08 01:35:39;;;;;;;0.70;0.60;;;;;;;16.13;100.00;100249.97;105143;1260;74991;-46
2023/06/08 01:38:49;;;;;;;1.60;0.60;;;;;;;16.14;100.00;100249.36;105780;1259;67189;-47
2023/06/08 01:41:21;;;;;;;0.90;0.70;;;;;;;16.14;100.00;100255.83;105399;1266;71403;-46
2023/06/08 01:43:50;;;;;;;1.30;0.70;;;;;;;16.16;100.00;100258.84;105335;1262;60748;-46
2023/06/08 01:46:21;;;;;;;1.40;0.60;;;;;;;16.17;100.00;100259.11;105317;1260;60469;-47
2023/06/08 01:48:49;;;;;;;0.70;0.60;;;;;;;16.18;100.00;100258.27;106242;1259;74730;-45
2023/06/08 01:51:17;;;;;;;1.90;0.70;;;;;;;16.21;100.00;100263.39;105517;1261;67842;-44
2023/06/08 01:53:44;;;;;;;1.30;0.70;;;;;;;16.22;100.00;100260.95;105283;1261;72894;-47
2023/06/08 01:56:11;;;;;;;0.70;0.70;;;;;;;16.22;100.00;100262.56;105205;1260;61688;-46
2023/06/08 01:58:39;;;;;;;1.30;0.60;;;;;;;16.22;100.00;100260.76;105086;1260;60526;-47
2023/06/08 02:01:06;;;;;;;1.00;0.70;;;;;;;16.21;100.00;100265.34;105311;1263;73896;-46
2023/06/08 02:03:33;;;;;;;0.80;0.70;;;;;;;16.21;100.00;100265.52;105342;1259;68299;-49
2023/06/08 02:06:01;;;;;;;1.30;1.00;;;;;;;16.22;100.00;100272.02;105346;1260;73177;-48
2023/06/08 02:08:31;;;;;;;0.80;0.70;;;;;;;16.22;100.00;100273.25;105450;1260;61710;-46
2023/06/08 02:10:59;;;;;;;1.10;0.70;;;;;;;16.21;100.00;100275.13;105518;1255;60537;-45
2023/06/08 02:13:27;;;;;;;3.20;1.00;;;;;;;16.20;100.00;100280.06;106025;1259;73820;-46
2023/06/08 02:15:54;;;;;;;2.50;0.90;;;;;;;16.19;100.00;100279.95;105406;1255;68066;-47
2023/06/08 02:18:21;;;;;;;0.70;0.70;;;;;;;16.19;100.00;100285.40;105375;1259;71900;-48
2023/06/08 02:20:50;;;;;;;1.00;0.80;;;;;;;16.19;100.00;100286.64;105532;1259;60737;-46
2023/06/08 02:23:17;;;;;;;1.20;0.70;;;;;;;16.19;100.00;100285.02;105482;1254;60875;-46
2023/06/08 02:25:45;;;;;;;1.00;0.70;;;;;;;16.19;100.00;100286.10;105401;1259;73850;-48
2023/06/08 02:28:12;;;;;;;1.20;0.70;;;;;;;16.18;100.00;100284.89;105408;1260;67547;-47
2023/06/08 02:30:40;;;;;;;1.60;0.80;;;;;;;16.17;100.00;100288.09;105553;1255;71354;-48
2023/06/08 02:33:08;;;;;;;0.70;0.70;;;;;;;16.15;100.00;100285.66;105992;1254;61477;-46
2023/06/08 02:35:36;;;;;;;2.20;0.90;;;;;;;16.13;100.00;100284.50;105456;1260;60603;-48
2023/06/08 02:38:04;;;;;;;4.50;1.00;;;;;;;16.13;100.00;100282.38;105770;1259;73888;-49
2023/06/08 02:40:31;;;;;;;3.90;1.10;;;;;;;16.13;100.00;100278.72;105351;1258;66561;-47
2023/06/08 02:42:59;;;;;;;2.20;0.90;;;;;;;16.14;100.00;100273.96;105393;1267;72527;-47
2023/06/08 02:45:26;;;;;;;1.60;1.30;;;;;;;16.13;100.00;100269.28;105417;1254;61717;-47
2023/06/08 02:47:57;;;;;;;1.70;0.90;;;;;;;16.13;100.00;100265.67;106966;1254;60758;-46
2023/06/08 02:50:24;;;;;;;3.10;1.60;;;;;;;16.15;100.00;100264.14;105290;1255;71684;-48
2023/06/08 02:52:52;;;;;;;2.90;1.00;;;;;;;16.15;100.00;100261.02;105419;1259;66906;-48
2023/06/08 02:55:19;;;;;;;1.20;0.80;;;;;;;16.15;100.00;100261.23;105397;1260;71455;-47
2023/06/08 02:57:51;;;;;;;1.50;0.90;;;;;;;16.16;100.00;100263.34;106132;1255;61659;-46
2023/06/08 03:00:21;;;;;;;1.20;1.10;;;;;;;16.18;100.00;100263.18;105846;1255;60607;-47
2023/06/08 03:02:56;;;;;;;;;;;;;;;16.21;100.00;100259.41;105337;1255;73220;-47
2023/06/08 03:05:24;;;;;;;1.30;1.00;;;;;;;16.22;100.00;100262.05;105861;1260;66665;-46
2023/06/08 03:07:53;;;;;;;2.40;0.80;;;;;;;16.22;100.00;100262.42;105320;1260;71713;-46
2023/06/08 03:10:20;;;;;;;2.20;0.80;;;;;;;16.22;100.00;100261.70;105330;1251;62717;-46
2023/06/08 03:12:48;;;;;;;2.50;1.10;;;;;;;16.20;100.00;100266.30;105455;1260;60504;-48
2023/06/08 03:15:22;;;;;;;0.80;0.80;;;;;;;16.20;100.00;100264.84;105354;1260;73815;-46
2023/06/08 03:17:51;;;;;;;1.00;0.90;;;;;;;16.21;100.00;100265.36;105691;1254;67760;-45
2023/06/08 03:20:19;;;;;;;1.70;0.90;;;;;;;16.21;100.00;100266.09;106157;1258;73419;-47
2023/06/08 03:22:54;;;;;;;1.00;0.80;;;;;;;16.22;100.00;100267.29;105770;1262;61555;-47
2023/06/08 03:25:22;;;;;;;2.00;1.00;;;;;;;16.21;100.00;100267.33;105386;1254;60541;-46
2023/06/08 03:27:50;;;;;;;4.20;0.80;;;;;;;16.22;100.00;100271.27;109093;1254;74572;-47
2023/06/08 03:30:18;;;;;;;1.40;0.80;;;;;;;16.23;100.00;100270.15;109090;1254;67815;-48
2023/06/08 03:32:51;;;;;;;1.40;0.90;;;;;;;16.23;100.00;100270.11;109095;1254;71730;-48
2023/06/08 03:35:25;;;;;;;1.80;1.00;;;;;;;16.24;100.00;100272.23;109130;1254;61134;-48
2023/06/08 03:38:12;;;;;;;1.30;0.80;;;;;;;16.26;100.00;100271.34;108998;1253;58763;-48
2023/06/08 03:40:40;;;;;;;0.90;0.80;;;;;;;16.31;100.00;100278.88;108980;1255;73758;-48
2023/06/08 03:43:07;;;;;;;1.40;0.90;;;;;;;16.34;100.00;100283.36;109156;1254;67880;-48
2023/06/08 03:45:34;;;;;;;1.40;1.00;;;;;;;16.37;100.00;100286.27;109028;1254;72662;-47
2023/06/08 03:48:02;;;;;;;1.00;0.90;;;;;;;16.39;100.00;100287.94;109005;1253;60033;-48
2023/06/08 03:50:30;;;;;;;0.90;0.70;;;;;;;16.41;100.00;100286.14;107867;1257;60601;-46
2023/06/08 03:52:58;;;;;;;0.90;0.80;;;;;;;16.44;100.00;100287.43;106230;1257;73865;-46
2023/06/08 03:55:26;;;;;;;1.10;0.90;;;;;;;16.46;100.00;100287.67;105376;1254;67892;-48
2023/06/08 03:57:54;;;;;;;1.00;0.90;;;;;;;16.48;100.00;100293.87;109048;1254;72702;-49
2023/06/08 04:00:21;;;;;;;1.10;1.00;;;;;;;16.52;100.00;100291.42;109109;1254;62114;-48
2023/06/08 04:02:51;;;;;;;2.00;1.10;;;;;;;16.56;100.00;100289.22;108978;1254;59127;-49
2023/06/08 04:05:21;;;;;;;3.40;1.00;;;;;;;16.58;100.00;100289.58;108986;1255;73818;-48
2023/06/08 04:07:50;;;;;;;1.50;0.90;;;;;;;16.60;100.00;100285.11;109137;1254;67500;-48
2023/06/08 04:10:18;;;;;;;1.30;1.00;;;;;;;16.61;100.00;100285.61;109000;1257;70406;-48
2023/06/08 04:12:46;;;;;;;1.80;1.30;;;;;;;16.63;100.00;100287.69;109081;1253;61728;-48
2023/06/08 04:15:14;;;;;;;1.20;1.10;;;;;;;16.65;100.00;100296.62;108905;1254;60107;-48
2023/06/08 04:17:43;;;;;;;2.00;1.20;;;;;;;16.68;100.00;100298.05;105741;1257;73152;-48
2023/06/08 04:20:12;;;;;;;1.70;1.40;;;;;;;16.70;100.00;100293.05;105873;1260;68051;-48
2023/06/08 04:22:40;;;;;;;1.50;1.40;;;;;;;16.72;100.00;100297.24;105916;1260;72695;-47
2023/06/08 04:25:08;;;;;;;6.40;2.20;;;;;;;16.76;100.00;100302.45;106464;1257;60685;-46
2023/06/08 04:27:36;;;;;;;2.30;1.50;;;;;;;16.80;100.00;100297.81;105676;1255;60335;-47
2023/06/08 04:30:05;;;;;;;1.40;1.30;;;;;;;16.84;100.00;100299.33;105322;1257;73925;-47
2023/06/08 04:32:33;;;;;;;2.00;1.80;;;;;;;16.89;100.00;100299.97;105620;1254;67731;-45
2023/06/08 04:35:03;;;;;;;1.90;1.70;;;;;;;16.92;100.00;100301.58;105841;1259;72718;-46
2023/06/08 04:37:32;;;;;;;5.90;1.60;;;;;;;16.94;100.00;100299.93;106317;1255;61659;-47
2023/06/08 04:40:01;;;;;;;1.70;1.40;;;;;;;16.98;100.00;100299.88;105298;1260;60320;-46
2023/06/08 04:42:32;;;;;;;1.30;1.20;;;;;;;17.04;100.00;100303.83;105077;1255;73917;-47
2023/06/08 04:45:03;;;;;;;2.00;1.20;;;;;;;17.08;100.00;100305.73;105117;1261;66648;-45
2023/06/08 04:47:31;;;;;;;1.90;1.00;;;;;;;17.13;100.00;100310.12;105104;1255;71489;-46
2023/06/08 04:50:00;;;;;;;1.90;1.00;;;;;;;17.17;100.00;100313.27;105168;1258;61347;-48
2023/06/08 04:52:30;;;;;;;1.00;0.90;;;;;;;17.23;100.00;100315.44;105707;1254;60536;-46
2023/06/08 04:55:01;;;;;;;1.10;1.00;;;;;;;17.28;100.00;100311.45;105475;1260;73806;-47
2023/06/08 04:57:28;;;;;;;2.50;1.00;;;;;;;17.33;100.00;100320.16;104937;1260;66859;-47
2023/06/08 04:59:55;;;;;;;3.60;0.90;;;;;;;17.37;100.00;100322.80;104826;1254;72906;-46
2023/06/08 05:02:23;;;;;;;2.50;1.30;;;;;;;17.42;100.00;100329.43;105087;1255;60709;-46
2023/06/08 05:04:50;;;;;;;3.10;1.30;;;;;;;17.44;100.00;100333.41;105500;1254;60534;-44
2023/06/08 05:07:18;;;;;;;1.40;1.20;;;;;;;17.47;100.00;100339.75;105486;1258;73885;-48
2023/06/08 05:09:45;;;;;;;1.60;1.30;;;;;;;17.50;100.00;100346.66;105253;1260;66321;-46
2023/06/08 05:12:12;;;;;;;1.20;1.10;;;;;;;17.53;100.00;100350.83;105188;1259;73097;-46
2023/06/08 05:14:40;;;;;;;1.40;1.10;;;;;;;17.54;100.00;100359.08;105471;1257;61702;-46
2023/06/08 05:17:08;;;;;;;3.00;1.10;;;;;;;17.55;100.00;100366.99;105330;1260;60517;-47
2023/06/08 05:19:36;;;;;;;1.10;1.00;;;;;;;17.57;100.00;100369.76;105634;1257;73844;-46
2023/06/08 05:22:03;;;;;;;1.10;1.00;;;;;;;17.61;100.00;100375.27;106061;1254;67546;-46
2023/06/08 05:24:31;;;;;;;2.80;1.40;;;;;;;17.67;100.00;100376.73;105230;1259;72565;-49
2023/06/08 05:26:58;;;;;;;1.80;1.20;;;;;;;17.72;100.00;100377.05;105276;1255;62335;-46
2023/06/08 05:29:26;;;;;;;1.00;0.90;;;;;;;17.77;100.00;100377.65;105108;1255;60629;-45
2023/06/08 05:31:53;;;;;;;0.80;0.70;;;;;;;17.81;100.00;100383.54;105040;1254;74355;-44
2023/06/08 05:34:20;;;;;;;1.60;0.90;;;;;;;17.86;100.00;100384.88;104691;1259;68030;-45
2023/06/08 05:36:47;;;;;;;1.40;0.90;;;;;;;17.90;100.00;100388.38;105031;1254;73135;-45
2023/06/08 05:39:17;;;;;;;1.80;1.00;;;;;;;17.96;100.00;100391.23;105539;1254;60869;-46
2023/06/08 05:41:44;;;;;;;1.00;0.90;;;;;;;18.00;100.00;100390.04;105326;1260;60543;-46
2023/06/08 05:44:11;;;;;;;1.30;1.00;;;;;;;18.02;100.00;100392.23;105435;1254;73187;-45
2023/06/08 05:46:38;;;;;;;2.40;1.10;;;;;;;18.04;100.00;100392.88;105117;1259;66282;-48
2023/06/08 05:49:06;;;;;;;1.60;0.90;;;;;;;18.07;100.00;100396.32;105084;1258;71377;-47
2023/06/08 05:51:33;;;;;;;1.30;0.90;;;;;;;18.08;100.00;100393.47;105235;1255;61614;-46
2023/06/08 05:54:01;;;;;;;1.30;0.70;;;;;;;18.09;100.00;100397.58;105349;1259;60312;-47
2023/06/08 05:56:28;;;;;;;2.20;0.90;;;;;;;18.08;100.00;100397.84;105690;1255;72758;-46
2023/06/08 05:58:55;;;;;;;0.70;0.60;;;;;;;18.06;100.00;100395.79;104861;1254;68382;-47
2023/06/08 06:01:23;;;;;;;1.20;0.80;;;;;;;18.06;100.00;100400.19;104940;1258;72430;-45
2023/06/08 06:03:50;;;;;;;3.00;0.90;;;;;;;18.07;100.00;100397.38;105098;1259;60608;-47
2023/06/08 06:06:18;;;;;;;2.30;0.80;;;;;;;18.11;100.00;100398.75;104981;1254;61038;-46
2023/06/08 06:08:45;;;;;;;2.30;0.80;;;;;;;18.16;100.00;100405.48;104980;1260;73776;-46
2023/06/08 06:11:13;;;;;;;1.50;0.90;;;;;;;18.19;100.00;100410.35;104808;1254;66622;-43
2023/06/08 06:13:40;;;;;;;1.60;0.80;;;;;;;18.22;100.00;100411.95;105018;1254;70516;-44
2023/06/08 06:16:08;;;;;;;2.20;0.80;;;;;;;18.25;100.00;100412.70;105093;1253;60644;-46
2023/06/08 06:18:35;;;;;;;0.90;0.80;;;;;;;18.25;100.00;100417.72;105082;1254;61712;-45
2023/06/08 06:21:02;;;;;;;1.10;0.80;;;;;;;18.28;100.00;100420.98;105103;1254;73834;-44
2023/06/08 06:23:30;;;;;;;1.40;0.80;;;;;;;18.32;100.00;100418.88;105311;1257;67466;-45
2023/06/08 06:25:59;;;;;;;1.10;0.90;;;;;;;18.35;100.00;100418.48;105831;1258;71439;-46
2023/06/08 06:28:30;;;;;;;1.10;1.00;;;;;;;18.37;100.00;100420.50;106161;1257;60656;-46
2023/06/08 06:30:57;;;;;;;0.90;0.80;;;;;;;18.39;100.00;100419.63;104793;1254;60431;-45
2023/06/08 06:33:25;;;;;;;4.10;0.90;;;;;;;18.43;100.00;100425.16;108936;1254;72953;-46
2023/06/08 06:35:53;;;;;;;2.00;0.90;;;;;;;18.50;100.00;100426.52;108966;1253;68006;-48
2023/06/08 06:38:21;;;;;;;1.20;0.80;;;;;;;18.57;100.00;100427.16;108930;1254;74278;-47
2023/06/08 06:40:52;;;;;;;1.90;0.90;;;;;;;18.64;100.00;100432.44;109007;1253;58830;-46
2023/06/08 06:43:20;;;;;;;1.10;0.90;;;;;;;18.71;100.00;100433.04;109030;1254;60070;-46
2023/06/08 06:46:08;;;;;;;0.90;0.90;;;;;;;18.77;100.00;100430.42;108890;1256;73228;-46
2023/06/08 06:48:35;;;;;;;1.50;0.90;;;;;;;18.81;100.00;100430.84;109060;1257;66325;-48
2023/06/08 06:51:02;;;;;;;2.40;1.00;;;;;;;18.85;100.00;100428.77;108972;1254;72612;-48
2023/06/08 06:53:30;;;;;;;1.10;1.00;;;;;;;18.88;100.00;100430.20;106870;1258;60265;-45
2023/06/08 06:55:59;;;;;;;2.80;1.10;;;;;;;18.91;100.00;100434.16;105286;1254;60648;-45
2023/06/08 06:58:27;;;;;;;2.40;1.00;;;;;;;18.93;100.00;100434.95;105303;1259;73827;-47
2023/06/08 07:00:55;;;;;;;1.40;0.80;;;;;;;18.95;100.00;100434.78;105311;1254;67604;-46
2023/06/08 07:03:26;;;;;;;2.50;1.40;;;;;;;18.99;100.00;100437.77;105246;1257;72482;-48
2023/06/08 07:05:57;;;;;;;3.70;1.90;;;;;;;19.03;100.00;100440.02;108854;1255;60390;-45
2023/06/08 07:08:26;;;;;;;3.60;1.00;;;;;;;19.10;100.00;100437.52;106070;1254;61593;-47
2023/06/08 07:10:54;;;;;;;1.40;1.20;;;;;;;19.16;100.00;100438.86;105246;1254;73307;-49
2023/06/08 07:13:21;;;;;;;1.90;1.10;;;;;;;19.21;100.00;100436.11;105356;1259;69638;-50
2023/06/08 07:15:48;;;;;;;2.80;1.10;;;;;;;19.28;100.00;100439.23;105327;1254;71400;-47
2023/06/08 07:18:16;;;;;;;2.40;1.60;;;;;;;19.35;100.00;100442.91;105369;1258;60415;-48
2023/06/08 07:20:43;;;;;;;2.90;1.10;;;;;;;19.41;100.00;100441.94;107166;1257;58741;-45
2023/06/08 07:23:11;;;;;;;2.80;1.10;;;;;;;19.46;100.00;100443.08;105831;1253;74673;-45
2023/06/08 07:25:58;;;;;;;3.00;1.20;;;;;;;19.49;100.00;100443.02;105308;1257;65577;-45
2023/06/08 07:28:46;;;;;;;3.10;1.00;;;;;;;19.54;100.00;100442.27;104946;1253;72655;-47
2023/06/08 07:31:13;;;;;;;2.20;1.10;;;;;;;19.60;100.00;100447.48;105072;1255;60847;-44
2023/06/08 07:33:41;;;;;;;1.80;0.90;;;;;;;19.65;100.00;100442.90;104995;1254;60628;-48
2023/06/08 07:36:08;;;;;;;1.30;0.80;;;;;;;19.72;100.00;100443.45;105213;1254;73961;-48
2023/06/08 07:38:35;;;;;;;1.80;1.00;;;;;;;19.81;100.00;100446.05;104925;1254;67714;-48
2023/06/08 07:41:03;;;;;;;1.50;0.90;;;;;;;19.93;100.00;100448.73;104913;1254;72812;-47
2023/06/08 07:43:31;;;;;;;1.80;1.30;;;;;;;20.03;100.00;100447.13;105632;1259;60322;-48
2023/06/08 07:45:58;;;;;;;5.50;1.30;;;;;;;20.12;100.00;100452.27;104975;1257;60373;-48
2023/06/08 07:48:26;;;;;;;1.90;0.90;;;;;;;20.22;100.00;100451.27;104853;1253;72855;-47
2023/06/08 07:50:53;;;;;;;2.20;1.10;;;;;;;20.30;100.00;100453.91;104984;1259;68298;-47
2023/06/08 07:53:20;;;;;;;1.90;1.10;;;;;;;20.39;100.00;100450.94;104879;1254;71382;-49
2023/06/08 07:55:47;;;;;;;5.00;0.90;;;;;;;20.46;100.00;100455.10;104952;1254;60510;-48
2023/06/08 07:58:15;;;;;;;1.70;0.90;;;;;;;20.54;100.00;100456.50;104685;1254;61459;-45
2023/06/08 08:00:42;;;;;;;1.70;0.80;;;;;;;20.62;100.00;100461.83;104846;1254;74228;-46
2023/06/08 08:03:09;;;;;;;2.60;0.80;;;;;;;20.68;100.00;100463.92;105041;1254;66449;-46
2023/06/08 08:05:37;;;;;;;2.30;0.70;;;;;;;20.75;100.00;100459.01;105461;1254;72523;-45
2023/06/08 08:08:05;;;;;;;2.70;0.60;;;;;;;20.80;100.00;100463.33;105360;1259;60486;-46
2023/06/08 08:10:32;;;;;;;1.10;0.60;;;;;;;20.85;100.00;100466.26;105316;1254;60431;-45
2023/06/08 08:12:59;;;;;;;0.60;0.60;;;;;;;20.89;100.00;100464.98;105306;1254;73783;-47
2023/06/08 08:15:27;;;;;;;0.90;0.50;;;;;;;20.93;100.00;100472.19;105328;1258;66416;-47
2023/06/08 08:17:54;;;;;;;0.80;0.60;;;;;;;20.94;100.00;100468.73;104890;1254;72647;-48
2023/06/08 08:22:16;;;;;;;0.90;0.60;;;;;;;21.01;100.00;100471.71;102157;1296;601177;-48
2023/06/08 08:24:43;;;;;;;0.80;0.50;;;;;;;21.03;100.00;100477.87;104284;1270;60133;-50
2023/06/08 08:27:11;;;;;;;3.00;0.60;;;;;;;21.05;100.00;100480.79;103791;1266;59640;-48
2023/06/08 08:29:39;;;;;;;1.30;0.60;;;;;;;21.04;100.00;100485.46;103708;1270;71001;-47
2023/06/08 08:32:07;;;;;;;0.90;0.60;;;;;;;21.04;100.00;100489.30;104448;1266;67405;-46
2023/06/08 08:34:34;;;;;;;2.20;0.80;;;;;;;21.03;100.00;100493.77;104224;1269;72606;-46
2023/06/08 08:37:01;;;;;;;0.60;0.60;;;;;;;21.03;100.00;100493.98;104333;1270;223092;-47
2023/06/08 08:39:29;;;;;;;0.70;0.60;;;;;;;20.99;100.00;100497.93;104645;1266;59350;-47
2023/06/08 08:41:57;;;;;;;1.30;0.60;;;;;;;20.96;100.00;100502.55;103509;1265;71383;-48
2023/06/08 08:44:24;;;;;;;1.10;0.70;;;;;;;20.99;100.00;100499.73;104950;1268;66778;-46
2023/06/08 08:46:52;;;;;;;0.80;0.60;;;;;;;21.07;100.00;100500.94;104827;1268;72148;-47
2023/06/08 08:49:21;;;;;;;2.00;0.70;;;;;;;21.11;100.00;100501.32;104520;1271;60050;-48
2023/06/08 08:51:50;;;;;;;1.80;0.70;;;;;;;21.08;100.00;100503.25;104765;1266;59851;-47
2023/06/08 08:54:17;;;;;;;1.00;0.60;;;;;;;21.06;100.00;100499.73;104669;1266;72180;-47
2023/06/08 08:56:45;;;;;;;1.90;0.70;;;;;;;21.09;100.00;100503.32;104482;1263;67572;-46
2023/06/08 08:59:13;;;;;;;1.00;0.70;;;;;;;21.14;100.00;100499.98;105941;1266;72403;-53
2023/06/08 09:01:41;;;;;;;0.70;0.70;;;;;;;21.18;100.00;100495.88;104444;1267;60121;-47
2023/06/08 09:04:08;;;;;;;0.70;0.70;;;;;;;21.23;100.00;100499.17;104592;1266;59693;-46
2023/06/08 09:06:35;;;;;;;1.60;0.80;;;;;;;21.27;100.00;100495.38;104594;1267;73102;-46
2023/06/08 09:09:03;;;;;;;2.70;0.80;;;;;;;21.28;100.00;100497.25;104602;1269;67717;-46
2023/06/08 09:11:34;;;;;;;1.50;0.70;;;;;;;21.27;100.00;100495.31;104695;1272;73398;-46
2023/06/08 09:14:07;;;;;;;2.80;0.70;;;;;;;21.29;100.00;100497.89;105079;1266;60076;-46
2023/06/08 09:16:43;;;;;;;1.90;0.60;;;;;;;21.34;100.00;100502.23;104826;1266;60105;-45
2023/06/08 09:19:10;;;;;;;1.00;0.70;;;;;;;21.42;100.00;100496.89;108194;1265;72522;-47
2023/06/08 09:21:40;;;;;;;1.00;0.70;;;;;;;21.52;100.00;100499.47;108314;1266;67580;-47
2023/06/08 09:24:16;;;;;;;0.80;0.70;;;;;;;21.62;100.00;100506.66;104590;1269;72683;-47
2023/06/08 09:26:45;;;;;;;5.60;0.60;;;;;;;21.71;100.00;100503.42;107124;1265;59311;-48
2023/06/08 09:29:36;;;;;;;1.00;0.60;;;;;;;21.77;100.00;100506.20;108285;1266;58646;-49
2023/06/08 09:32:04;;;;;;;0.70;0.60;;;;;;;21.84;100.00;100504.14;108359;1263;70861;-47
2023/06/08 09:34:47;;;;;;;4.20;0.50;;;;;;;21.91;100.00;100508.31;106233;1267;67614;-49
2023/06/08 09:37:14;;;;;;;1.20;0.60;;;;;;;22.00;100.00;100507.96;104665;1268;74175;-45
2023/06/08 09:39:43;;;;;;;0.70;0.70;;;;;;;22.07;100.00;100503.13;104785;1266;60340;-45
2023/06/08 09:42:10;;;;;;;0.90;0.60;;;;;;;22.09;100.00;100500.44;108317;1263;58944;-46
2023/06/08 09:44:38;;;;;;;0.80;0.60;;;;;;;22.07;100.00;100500.73;108471;1261;73079;-47
2023/06/08 09:47:25;;;;;;;2.40;0.50;;;;;;;22.07;100.00;100498.77;108484;1263;67897;-46
2023/06/08 09:49:54;;;;;;;0.90;0.50;;;;;;;22.07;100.00;100498.79;108481;1264;73066;-45
2023/06/08 09:52:26;;;;;;;1.10;0.60;;;;;;;22.06;100.00;100495.15;108499;1268;60080;-45
2023/06/08 09:54:53;;;;;;;0.80;0.60;;;;;;;22.06;100.00;100492.77;108423;1260;58776;-45
2023/06/08 09:57:20;;;;;;;1.40;0.60;;;;;;;22.08;100.00;100495.77;108577;1260;72399;-47
2023/06/08 09:59:53;;;;;;;0.60;0.50;;;;;;;22.09;100.00;100486.89;108577;1263;67011;-46
2023/06/08 10:02:32;;;;;;;0.60;0.60;;;;;;;22.14;100.00;100484.45;108450;1260;70430;-45
2023/06/08 10:05:04;;;;;;;0.90;0.80;;;;;;;22.21;100.00;100491.14;108576;1267;60012;-44
2023/06/08 10:07:35;;;;;;;0.70;0.70;;;;;;;22.32;100.00;100490.05;108425;1260;60026;-46
2023/06/08 10:10:10;;;;;;;0.90;0.70;;;;;;;22.44;100.00;100487.04;108456;1260;72474;-44
2023/06/08 10:12:37;;;;;;;0.80;0.50;;;;;;;22.48;100.00;100486.43;106895;1267;66661;-45
2023/06/08 10:15:05;;;;;;;0.70;0.50;;;;;;;22.52;100.00;100490.49;104568;1263;72258;-49
2023/06/08 10:17:34;;;;;;;0.60;0.60;;;;;;;22.53;100.00;100485.07;105674;1267;59986;-48
2023/06/08 10:20:01;;;;;;;0.70;0.50;;;;;;;22.58;100.00;100482.10;105117;1268;59739;-45
2023/06/08 10:22:31;;;;;;;1.20;0.60;;;;;;;22.64;100.00;100482.66;104408;1263;71210;-47
2023/06/08 10:24:58;;;;;;;1.50;0.60;;;;;;;22.74;100.00;100484.42;104382;1262;66594;-48
2023/06/08 10:27:36;;;;;;;1.30;0.70;;;;;;;22.84;100.00;100485.55;107235;1259;72651;-47
2023/06/08 10:30:05;;;;;;;0.70;0.60;;;;;;;22.84;100.00;100480.23;105874;1257;62344;-46
2023/06/08 10:32:34;;;;;;;1.00;0.60;;;;;;;22.82;100.00;100478.21;105829;1258;60461;-48
2023/06/08 10:35:06;;;;;;;2.40;0.60;;;;;;;22.82;100.00;100478.95;104934;1260;73117;-47
2023/06/08 10:37:35;;;;;;;1.10;0.60;;;;;;;22.81;100.00;100472.79;105167;1263;67877;-46
2023/06/08 10:40:08;;;;;;;1.90;0.60;;;;;;;22.77;100.00;100471.88;104490;1260;73290;-50
2023/06/08 10:42:36;;;;;;;1.10;0.70;;;;;;;22.78;100.00;100469.48;104932;1263;60187;-46
2023/06/08 10:45:04;;;;;;;6.20;0.60;;;;;;;22.83;100.00;100472.85;105027;1258;59566;-45
2023/06/08 10:47:35;;;;;;;1.80;0.50;;;;;;;22.86;100.00;100470.37;105046;1265;73072;-46
2023/06/08 10:50:08;;;;;;;1.10;0.60;;;;;;;22.79;100.00;100471.94;105383;1259;67765;-46
2023/06/08 10:52:42;;;;;;;2.90;0.60;;;;;;;22.76;100.00;100467.93;105593;1260;72316;-48
2023/06/08 10:55:13;;;;;;;1.90;0.60;;;;;;;22.78;100.00;100470.34;108688;1260;59070;-45
2023/06/08 10:57:52;;;;;;;0.50;0.50;;;;;;;22.84;100.00;100467.45;108707;1257;58833;-45
2023/06/08 11:00:27;;;;;;;4.30;1.00;;;;;;;22.95;100.00;100465.67;108734;1256;73053;-47
2023/06/08 11:03:01;;;;;;;0.50;0.50;;;;;;;23.10;100.00;100470.80;108749;1256;67892;-47
2023/06/08 11:05:29;;;;;;;;;;;;;;;23.22;100.00;100470.42;107947;1260;71430;-48
2023/06/08 11:07:56;;;;;;;0.50;0.50;;;;;;;23.28;100.00;100473.92;105233;1260;59724;-47
2023/06/08 11:10:23;;;;;;;0.60;0.50;;;;;;;23.24;100.00;100468.93;105159;1259;59977;-47
2023/06/08 11:12:51;;;;;;;0.60;0.60;;;;;;;23.09;100.00;100466.34;105062;1256;71562;-47
2023/06/08 11:15:18;;;;;;;3.90;0.60;;;;;;;22.90;100.00;100463.75;105091;1256;67593;-47
2023/06/08 11:17:57;;;;;;;1.70;0.60;;;;;;;22.80;100.00;100460.79;105134;1257;71188;-47
2023/06/08 11:20:25;;;;;;;0.90;0.60;;;;;;;22.78;100.00;100457.75;105052;1256;60008;-48